Gander International Airport

CYQX | YQX

Gander , Newfoundland and Labrador , Canada

Saturday, September 21st, 2019 | 09:00

Weather

CYQX 211100Z 35017G26KT 1SM R13/P6000FT/D R03/P6000FT/D -DZ BR OVC002 07/07 A2970 RMK FG5SF3 SLP061

Charts

No Charts Available

Gates

20 Available

Runways

2 Available

Events

No events for this airport


New event